Main page
METAR-TAF:

METAR-TAF

Airports :

Aeroparque Jorge Newbery

Buenos Aires, Argentina

latitude: 34-34S, longitude: 058-25W, elevation: 6 m

Current weather observation

The report was made 28 minutes ago, at 00:00 UTC
Wind 4 kt from the West/Northwest
Temperature 16°C
Humidity 59%
Pressure 1023 hPa
Visibility 10 km or more
no clouds below 1500 m and no cumulonimbus

METAR: SABE 240000Z 29004KT CAVOK 16/08 Q1023 NOSIG

Time: 21:28 (00:28 UTC)

Forecast

The report was made 1 hour and 28 minutes ago, at 23:00 UTC
Forecast valid from 24 at 00 UTC to 24 at 24 UTC
Wind 5 kt from the North
Visibility 10 km or more
no clouds below 1500 m and no cumulonimbus
Becoming
from 24 at 16 UTC to 24 at 18 UTC
Wind 10 kt from the North/Northwest

TAF: SABE 232300Z 2400/2424 36005KT CAVOK TX21/2418Z TN12/2410Z BECMG 2416/2418 34010KT

Weather observations and forecasts of more than 4000 airports (METAR and TAF reports).

The available stations are represented by yellow and red dots on the map.

Hover mouse over dot to see the name of the station.

Then click to see weather observations and forecasts.

To change the map : click on the green buttons with a black cross to zoom in, on the green button with a dash to zoom out, or on the green arrows for adjacent maps.


METAR-TAF: